Time;durP1;ratioP1;P1;durP2;ratioP2;P2;SDS_P1;SDS_P2;PMS_P1;PMS_P2;Temp;Humidity;BMP_temperature;BMP_pressure;BME280_temperature;BME280_humidity;BME280_pressure;Samples;Min_cycle;Max_cycle;Signal;HPM_P1;HPM_P2
2023/07/23 00:00:16;;;;;;;;;;;17.70;82.80;;;;;;5023051;28;20232;-85
2023/07/23 00:02:42;;;;;;;;;;;17.70;83.00;;;;;;5004929;28;20666;-84
2023/07/23 00:05:08;;;;;;;;;;;17.70;83.00;;;;;;5003879;28;19994;-85
2023/07/23 00:07:34;;;;;;;;;;;17.80;82.70;;;;;;5030422;28;19913;-85
2023/07/23 00:09:59;;;;;;;;;;;17.80;82.80;;;;;;5027886;28;19920;-86
2023/07/23 00:12:25;;;;;;;;;;;17.70;83.50;;;;;;5025433;28;19917;-84
2023/07/23 00:14:50;;;;;;;;;;;17.60;83.90;;;;;;5029896;28;19921;-85
2023/07/23 00:17:16;;;;;;;;;;;17.60;83.90;;;;;;5026600;28;20799;-85
2023/07/23 00:19:41;;;;;;;;;;;17.60;83.90;;;;;;5038883;28;20423;-85
2023/07/23 00:22:07;;;;;;;;;;;17.60;84.30;;;;;;5034153;28;19913;-84
2023/07/23 00:24:32;;;;;;;;;;;17.50;84.40;;;;;;5031804;28;19932;-84
2023/07/23 00:26:58;;;;;;;;;;;17.50;84.60;;;;;;5024433;28;20127;-83
2023/07/23 00:29:23;;;;;;;;;;;17.50;84.60;;;;;;5030068;28;19913;-84
2023/07/23 00:31:49;;;;;;;;;;;17.50;85.00;;;;;;5029938;28;19910;-85
2023/07/23 00:34:15;;;;;;;;;;;17.50;84.40;;;;;;5028154;28;19997;-82
2023/07/23 00:36:40;;;;;;;;;;;17.50;84.70;;;;;;5029347;28;20013;-85
2023/07/23 00:39:06;;;;;;;;;;;17.40;84.90;;;;;;5014885;28;20524;-85
2023/07/23 00:41:31;;;;;;;;;;;17.30;85.30;;;;;;5027842;28;20883;-86
2023/07/23 00:43:57;;;;;;;;;;;17.30;86.00;;;;;;5012602;28;19913;-86
2023/07/23 00:46:23;;;;;;;;;;;17.20;86.30;;;;;;5022375;28;19987;-85
2023/07/23 00:48:48;;;;;;;;;;;17.20;86.10;;;;;;5007774;28;19921;-85
2023/07/23 00:51:15;;;;;;;;;;;17.30;86.10;;;;;;5023981;28;19925;-84
2023/07/23 00:53:41;;;;;;;;;;;17.20;86.40;;;;;;5028043;28;20029;-85
2023/07/23 00:56:07;;;;;;;;;;;17.20;86.60;;;;;;5025021;28;20015;-84
2023/07/23 00:58:32;;;;;;;;;;;17.10;87.00;;;;;;5028499;28;19944;-84
2023/07/23 01:00:58;;;;;;;;;;;17.00;87.50;;;;;;5025595;28;20008;-84
2023/07/23 01:03:24;;;;;;;;;;;17.00;87.60;;;;;;5028050;28;19917;-85
2023/07/23 01:05:49;;;;;;;;;;;16.90;87.80;;;;;;5025489;28;19913;-83
2023/07/23 01:08:15;;;;;;;;;;;16.90;88.20;;;;;;5024813;28;19921;-81
2023/07/23 01:10:41;;;;;;;;;;;16.90;88.60;;;;;;5020503;28;20375;-81
2023/07/23 01:13:07;;;;;;;;;;;17.00;88.20;;;;;;5025327;28;19917;-82
2023/07/23 01:15:33;;;;;;;;;;;17.00;88.30;;;;;;5025095;28;19921;-82
2023/07/23 01:17:59;;;;;;;;;;;16.90;88.40;;;;;;5031738;28;19913;-84
2023/07/23 01:20:25;;;;;;;;;;;16.90;88.50;;;;;;5007176;28;19917;-85
2023/07/23 01:22:50;;;;;;;;;;;16.90;88.50;;;;;;5020933;28;20484;-85
2023/07/23 01:25:16;;;;;;;;;;;16.90;88.60;;;;;;5029215;28;19975;-85
2023/07/23 01:27:41;;;;;;;;;;;16.90;88.60;;;;;;5025439;28;19987;-85
2023/07/23 01:30:10;;;;;;;;;;;17.00;88.20;;;;;;5022049;28;19909;-86
2023/07/23 01:32:36;;;;;;;;;;;17.00;87.90;;;;;;5006347;28;19987;-84
2023/07/23 01:35:13;;;;;;;;;;;17.10;87.50;;;;;;5023905;28;21393;-84
2023/07/23 01:37:39;;;;;;;;;;;17.20;86.90;;;;;;5024911;28;19913;-84
2023/07/23 01:40:05;;;;;;;;;;;17.10;87.30;;;;;;5025300;28;20359;-86
2023/07/23 01:42:31;;;;;;;;;;;17.10;87.50;;;;;;5024195;28;19928;-83
2023/07/23 01:45:00;;;;;;;;;;;17.00;87.70;;;;;;5005762;28;19923;-85
2023/07/23 01:47:26;;;;;;;;;;;17.10;87.50;;;;;;5018966;28;19921;-85
2023/07/23 01:49:51;;;;;;;;;;;17.10;87.50;;;;;;5024207;28;19917;-85
2023/07/23 01:52:17;;;;;;;;;;;17.00;87.60;;;;;;5025095;28;19932;-85
2023/07/23 01:54:42;;;;;;;;;;;16.90;88.30;;;;;;5023373;28;19964;-83
2023/07/23 01:57:08;;;;;;;;;;;16.90;88.50;;;;;;5023989;28;19917;-84
2023/07/23 01:59:34;;;;;;;;;;;16.90;88.50;;;;;;5022505;28;19917;-84
2023/07/23 02:02:00;;;;;;;;;;;16.90;88.50;;;;;;5023928;28;20385;-88
2023/07/23 02:04:26;;;;;;;;;;;16.90;88.60;;;;;;5023014;28;20388;-88
2023/07/23 02:06:51;;;;;;;;;;;16.90;89.00;;;;;;5023766;28;19941;-85
2023/07/23 02:09:17;;;;;;;;;;;16.80;89.30;;;;;;5024110;28;20538;-82
2023/07/23 02:11:42;;;;;;;;;;;16.80;89.40;;;;;;5022493;28;19925;-83
2023/07/23 02:14:08;;;;;;;;;;;16.70;89.80;;;;;;5022906;28;20535;-83
2023/07/23 02:16:34;;;;;;;;;;;16.70;90.00;;;;;;5023892;28;19925;-82
2023/07/23 02:18:59;;;;;;;;;;;16.70;90.00;;;;;;5004953;28;20020;-82
2023/07/23 02:21:25;;;;;;;;;;;16.60;90.20;;;;;;5023695;28;19932;-83
2023/07/23 02:23:50;;;;;;;;;;;16.60;90.30;;;;;;5022824;28;19913;-84
2023/07/23 02:26:16;;;;;;;;;;;16.60;90.00;;;;;;5006704;28;20255;-83
2023/07/23 02:28:43;;;;;;;;;;;16.50;90.30;;;;;;5022851;28;19913;-81
2023/07/23 02:31:09;;;;;;;;;;;16.50;90.30;;;;;;5021962;28;19928;-81
2023/07/23 02:33:35;;;;;;;;;;;16.50;90.20;;;;;;5018127;28;19921;-81
2023/07/23 02:36:01;;;;;;;;;;;16.50;90.20;;;;;;5005193;28;19921;-80
2023/07/23 02:38:26;;;;;;;;;;;16.50;90.30;;;;;;5005166;28;19976;-81
2023/07/23 02:40:57;;;;;;;;;;;16.40;90.30;;;;;;5023170;28;19920;-80
2023/07/23 02:43:23;;;;;;;;;;;16.40;90.20;;;;;;5021749;28;19944;-81
2023/07/23 02:45:49;;;;;;;;;;;16.40;90.30;;;;;;5023078;28;20515;-81
2023/07/23 02:48:15;;;;;;;;;;;16.40;90.20;;;;;;5022273;28;19933;-81
2023/07/23 02:50:40;;;;;;;;;;;16.50;90.10;;;;;;5004718;28;20075;-81
2023/07/23 02:53:06;;;;;;;;;;;16.40;90.00;;;;;;5004357;28;20557;-81
2023/07/23 02:55:32;;;;;;;;;;;16.50;90.00;;;;;;5004855;28;19996;-80
2023/07/23 02:58:00;;;;;;;;;;;16.50;90.10;;;;;;5003932;28;20566;-81
2023/07/23 03:00:27;;;;;;;;;;;16.50;89.70;;;;;;5022511;28;19924;-82
2023/07/23 03:02:53;;;;;;;;;;;16.50;89.80;;;;;;5021056;28;19917;-80
2023/07/23 03:05:19;;;;;;;;;;;16.50;90.10;;;;;;5022079;28;20422;-81
2023/07/23 03:07:44;;;;;;;;;;;16.50;90.00;;;;;;5023333;28;19949;-81
2023/07/23 03:10:10;;;;;;;;;;;16.30;90.10;;;;;;5021979;28;19939;-83
2023/07/23 03:12:35;;;;;;;;;;;16.20;90.50;;;;;;5022323;28;19913;-80
2023/07/23 03:15:01;;;;;;;;;;;16.20;90.50;;;;;;5022759;28;20055;-82
2023/07/23 03:17:26;;;;;;;;;;;16.30;90.30;;;;;;5023471;28;19959;-82
2023/07/23 03:19:52;;;;;;;;;;;16.30;90.20;;;;;;5017685;28;19920;-82
2023/07/23 03:22:18;;;;;;;;;;;16.30;90.20;;;;;;5022886;28;20374;-81
2023/07/23 03:24:45;;;;;;;;;;;16.20;90.30;;;;;;5005097;28;19913;-81
2023/07/23 03:27:11;;;;;;;;;;;16.20;90.50;;;;;;5023117;28;20200;-82
2023/07/23 03:29:36;;;;;;;;;;;16.20;90.60;;;;;;5022823;28;19913;-83
2023/07/23 03:32:02;;;;;;;;;;;16.10;90.60;;;;;;5021566;28;20410;-82
2023/07/23 03:34:27;;;;;;;;;;;16.20;90.60;;;;;;5015143;28;19963;-83
2023/07/23 03:36:53;;;;;;;;;;;16.20;90.60;;;;;;5021873;28;19924;-82
2023/07/23 03:39:19;;;;;;;;;;;16.20;90.30;;;;;;5022668;28;19913;-83
2023/07/23 03:41:45;;;;;;;;;;;16.30;90.40;;;;;;5001242;28;19958;-83
2023/07/23 03:44:11;;;;;;;;;;;16.20;90.30;;;;;;5021772;28;20426;-83
2023/07/23 03:46:55;;;;;;;;;;;16.20;90.30;;;;;;5022032;28;19925;-82
2023/07/23 03:49:21;;;;;;;;;;;16.20;90.30;;;;;;5021244;28;20316;-82
2023/07/23 03:51:46;;;;;;;;;;;16.30;90.40;;;;;;5022183;28;19933;-82
2023/07/23 03:54:12;;;;;;;;;;;16.30;90.20;;;;;;5022535;28;19913;-83
2023/07/23 03:56:37;;;;;;;;;;;16.30;90.10;;;;;;5021061;28;19924;-83
2023/07/23 03:59:04;;;;;;;;;;;16.30;90.10;;;;;;5020837;28;19924;-81
2023/07/23 04:01:29;;;;;;;;;;;16.20;90.40;;;;;;5019715;28;20047;-81
2023/07/23 04:03:55;;;;;;;;;;;16.20;90.40;;;;;;5021385;28;19921;-82
2023/07/23 04:06:20;;;;;;;;;;;16.10;90.40;;;;;;5020894;28;19913;-81
2023/07/23 04:08:46;;;;;;;;;;;16.10;90.60;;;;;;5022048;28;19913;-81
2023/07/23 04:11:14;;;;;;;;;;;16.10;90.60;;;;;;5021468;28;19940;-85
2023/07/23 04:13:39;;;;;;;;;;;16.20;90.40;;;;;;5021854;28;19926;-85
2023/07/23 04:16:09;;;;;;;;;;;16.10;90.50;;;;;;5021087;28;19943;-84
2023/07/23 04:18:50;;;;;;;;;;;16.10;90.60;;;;;;5021434;28;19957;-84
2023/07/23 04:21:18;;;;;;;;;;;16.00;90.80;;;;;;5020861;28;20410;-85
2023/07/23 04:23:47;;;;;;;;;;;15.90;91.20;;;;;;5021063;28;19917;-86
2023/07/23 04:26:13;;;;;;;;;;;15.80;91.30;;;;;;5020191;28;19921;-86
2023/07/23 04:28:38;;;;;;;;;;;15.80;91.50;;;;;;5019342;28;19979;-82
2023/07/23 04:31:04;;;;;;;;;;;15.80;91.60;;;;;;5021055;28;19913;-82
2023/07/23 04:33:29;;;;;;;;;;;15.80;91.70;;;;;;5021390;28;19920;-81
2023/07/23 04:35:55;;;;;;;;;;;15.70;91.70;;;;;;5021177;28;20407;-81
2023/07/23 04:38:20;;;;;;;;;;;15.80;91.50;;;;;;5022291;28;20357;-81
2023/07/23 04:40:46;;;;;;;;;;;15.80;91.40;;;;;;5001196;28;19920;-81
2023/07/23 04:43:12;;;;;;;;;;;15.80;91.30;;;;;;5019645;28;20344;-81
2023/07/23 04:45:38;;;;;;;;;;;15.80;91.70;;;;;;5017763;28;20690;-80
2023/07/23 04:48:03;;;;;;;;;;;15.80;91.80;;;;;;5022612;28;19917;-81
2023/07/23 04:50:29;;;;;;;;;;;15.70;91.90;;;;;;5013306;28;20380;-82
2023/07/23 04:52:54;;;;;;;;;;;15.70;92.10;;;;;;5016512;28;19939;-81
2023/07/23 04:55:20;;;;;;;;;;;15.70;92.30;;;;;;5032597;28;19925;-81
2023/07/23 04:57:47;;;;;;;;;;;15.80;92.20;;;;;;5017151;28;21620;-82
2023/07/23 05:00:13;;;;;;;;;;;15.90;91.90;;;;;;5022076;28;19913;-81
2023/07/23 05:02:39;;;;;;;;;;;16.20;91.60;;;;;;5004354;28;19979;-81
2023/07/23 05:05:04;;;;;;;;;;;16.30;91.20;;;;;;5020281;28;19923;-80
2023/07/23 05:07:31;;;;;;;;;;;16.60;90.50;;;;;;5011315;28;20062;-81
2023/07/23 05:09:56;;;;;;;;;;;16.80;89.50;;;;;;5031438;28;19918;-80
2023/07/23 05:12:22;;;;;;;;;;;17.20;88.30;;;;;;5020828;28;19990;-81
2023/07/23 05:14:48;;;;;;;;;;;17.30;86.90;;;;;;5021669;28;19922;-81
2023/07/23 05:17:14;;;;;;;;;;;17.60;85.50;;;;;;5021809;28;20435;-80
2023/07/23 05:19:39;;;;;;;;;;;18.00;83.40;;;;;;5030445;28;19920;-80
2023/07/23 05:22:05;;;;;;;;;;;18.00;83.50;;;;;;5014105;28;19917;-80
2023/07/23 05:24:31;;;;;;;;;;;17.70;85.20;;;;;;5028176;28;19957;-81
2023/07/23 05:26:57;;;;;;;;;;;17.70;85.30;;;;;;5031031;28;20303;-81
2023/07/23 05:29:23;;;;;;;;;;;18.10;84.70;;;;;;5031261;28;20761;-79
2023/07/23 05:31:48;;;;;;;;;;;18.90;81.20;;;;;;5004297;28;19913;-81
2023/07/23 05:34:14;;;;;;;;;;;19.40;78.50;;;;;;5031079;28;19986;-82
2023/07/23 05:36:39;;;;;;;;;;;20.30;76.10;;;;;;5029708;28;20438;-81
2023/07/23 05:39:05;;;;;;;;;;;20.50;72.80;;;;;;5027621;28;20335;-81
2023/07/23 05:41:31;;;;;;;;;;;20.90;72.60;;;;;;5024984;28;19957;-81
2023/07/23 05:43:56;;;;;;;;;;;21.30;71.10;;;;;;5026027;28;19921;-83
2023/07/23 05:46:22;;;;;;;;;;;22.00;67.30;;;;;;5021784;28;19917;-84
2023/07/23 05:48:48;;;;;;;;;;;22.30;66.30;;;;;;5007039;28;20414;-81
2023/07/23 05:51:14;;;;;;;;;;;22.30;65.30;;;;;;5023494;28;20507;-82
2023/07/23 05:53:39;;;;;;;;;;;22.40;65.00;;;;;;5024806;28;19917;-79
2023/07/23 05:56:05;;;;;;;;;;;23.00;65.00;;;;;;5025035;28;19929;-80
2023/07/23 05:58:31;;;;;;;;;;;23.50;64.90;;;;;;5027087;28;19917;-79
2023/07/23 06:00:56;;;;;;;;;;;23.40;62.10;;;;;;5032301;28;20701;-80
2023/07/23 06:03:22;;;;;;;;;;;23.30;62.20;;;;;;5023344;28;19984;-79
2023/07/23 06:05:48;;;;;;;;;;;22.80;64.10;;;;;;5022515;28;19921;-79
2023/07/23 06:08:13;;;;;;;;;;;22.30;66.30;;;;;;5020054;28;19997;-80
2023/07/23 06:10:40;;;;;;;;;;;22.70;64.70;;;;;;5022913;28;19952;-81
2023/07/23 06:13:05;;;;;;;;;;;23.30;62.60;;;;;;5023493;28;20019;-80
2023/07/23 06:15:31;;;;;;;;;;;24.00;61.40;;;;;;5029552;28;19970;-81
2023/07/23 06:17:57;;;;;;;;;;;24.40;59.50;;;;;;5025144;28;19963;-81
2023/07/23 06:20:22;;;;;;;;;;;25.00;57.90;;;;;;5027656;28;20459;-81
2023/07/23 06:22:48;;;;;;;;;;;25.50;57.10;;;;;;5028498;28;19924;-80
2023/07/23 06:25:14;;;;;;;;;;;25.00;57.60;;;;;;5026695;28;19917;-82
2023/07/23 06:27:40;;;;;;;;;;;24.30;57.60;;;;;;5008807;28;19917;-82
2023/07/23 06:30:06;;;;;;;;;;;23.50;61.10;;;;;;5027823;28;19921;-83
2023/07/23 06:32:31;;;;;;;;;;;23.80;61.00;;;;;;5021090;28;19917;-83
2023/07/23 06:34:57;;;;;;;;;;;24.40;59.40;;;;;;5035988;28;19924;-84
2023/07/23 06:37:22;;;;;;;;;;;25.60;56.90;;;;;;5005604;28;19924;-83
2023/07/23 06:39:48;;;;;;;;;;;25.30;56.30;;;;;;5009203;28;19917;-83
2023/07/23 06:42:13;;;;;;;;;;;25.30;56.70;;;;;;5040880;28;19912;-83
2023/07/23 06:44:40;;;;;;;;;;;25.70;55.10;;;;;;5022832;28;19925;-84
2023/07/23 06:47:05;;;;;;;;;;;26.20;54.40;;;;;;5013651;28;19921;-84
2023/07/23 06:49:31;;;;;;;;;;;26.10;54.40;;;;;;5032871;28;19920;-84
2023/07/23 06:51:57;;;;;;;;;;;27.00;52.70;;;;;;5012854;28;19977;-84
2023/07/23 06:54:23;;;;;;;;;;;27.10;52.60;;;;;;5025217;28;20008;-84
2023/07/23 06:56:49;;;;;;;;;;;24.60;57.00;;;;;;5005123;28;20593;-83
2023/07/23 06:59:15;;;;;;;;;;;23.60;60.50;;;;;;5007753;28;19917;-83
2023/07/23 07:01:40;;;;;;;;;;;25.10;59.40;;;;;;5023485;28;20443;-84
2023/07/23 07:04:06;;;;;;;;;;;28.20;53.70;;;;;;5019302;28;19917;-84
2023/07/23 07:06:32;;;;;;;;;;;28.50;49.30;;;;;;5027079;28;19913;-85
2023/07/23 07:08:57;;;;;;;;;;;28.20;50.60;;;;;;5021918;28;19917;-85
2023/07/23 07:11:23;;;;;;;;;;;27.80;51.60;;;;;;5022690;28;19924;-85
2023/07/23 07:13:48;;;;;;;;;;;27.00;53.50;;;;;;5017874;28;19933;-85
2023/07/23 07:16:16;;;;;;;;;;;28.80;50.60;;;;;;5002272;28;19927;-86
2023/07/23 07:18:41;;;;;;;;;;;27.20;52.50;;;;;;5017649;28;19972;-86
2023/07/23 07:21:07;;;;;;;;;;;24.90;57.60;;;;;;5003873;28;19970;-85
2023/07/23 07:23:33;;;;;;;;;;;24.30;59.00;;;;;;5002504;28;20398;-85
2023/07/23 07:26:00;;;;;;;;;;;24.50;58.90;;;;;;5022585;28;20542;-85
2023/07/23 07:28:26;;;;;;;;;;;25.00;59.00;;;;;;4999584;28;20459;-85
2023/07/23 07:30:55;;;;;;;;;;;27.00;54.50;;;;;;5018395;28;19913;-85
2023/07/23 07:33:21;;;;;;;;;;;29.20;50.50;;;;;;5022734;28;19913;-84
2023/07/23 07:35:46;;;;;;;;;;;30.50;47.30;;;;;;5013994;28;20010;-86
2023/07/23 07:38:12;;;;;;;;;;;29.20;50.00;;;;;;5015749;28;19921;-85
2023/07/23 07:40:38;;;;;;;;;;;29.50;48.60;;;;;;5015839;28;19986;-85
2023/07/23 07:43:04;;;;;;;;;;;30.30;48.00;;;;;;5023286;28;19995;-85
2023/07/23 07:45:29;;;;;;;;;;;28.40;50.50;;;;;;5022185;28;20036;-85
2023/07/23 07:47:55;;;;;;;;;;;28.00;52.40;;;;;;5022309;28;20583;-84
2023/07/23 07:50:20;;;;;;;;;;;28.80;50.00;;;;;;5022647;28;20391;-85
2023/07/23 07:52:46;;;;;;;;;;;30.20;47.70;;;;;;5021670;28;20707;-84
2023/07/23 07:55:12;;;;;;;;;;;30.30;46.80;;;;;;5021807;28;20403;-85
2023/07/23 07:57:38;;;;;;;;;;;28.80;48.30;;;;;;5003613;28;19924;-85
2023/07/23 08:00:06;;;;;;;;;;;28.30;48.70;;;;;;5019779;28;20093;-84
2023/07/23 08:02:32;;;;;;;;;;;28.70;49.20;;;;;;5021825;28;20027;-84
2023/07/23 08:04:58;;;;;;;;;;;29.70;47.90;;;;;;5021175;28;20456;-84
2023/07/23 08:07:24;;;;;;;;;;;30.20;46.60;;;;;;5021363;28;20284;-84
2023/07/23 08:09:51;;;;;;;;;;;31.10;45.20;;;;;;5021363;28;19917;-84
2023/07/23 08:12:18;;;;;;;;;;;30.10;46.40;;;;;;5021387;28;19913;-85
2023/07/23 08:14:43;;;;;;;;;;;30.50;46.50;;;;;;5021416;28;19979;-85
2023/07/23 08:17:09;;;;;;;;;;;30.70;47.50;;;;;;5022102;28;20365;-85
2023/07/23 08:19:35;;;;;;;;;;;30.90;47.20;;;;;;5021575;28;20375;-85
2023/07/23 08:22:01;;;;;;;;;;;31.50;46.00;;;;;;5011574;28;20367;-84
2023/07/23 08:24:26;;;;;;;;;;;31.80;46.10;;;;;;5022271;28;20275;-84
2023/07/23 08:26:54;;;;;;;;;;;32.00;45.60;;;;;;5021466;28;19913;-85
2023/07/23 08:29:21;;;;;;;;;;;32.30;46.80;;;;;;5021945;28;19917;-84
2023/07/23 08:31:47;;;;;;;;;;;33.10;44.90;;;;;;5021623;28;19948;-84
2023/07/23 08:34:13;;;;;;;;;;;33.50;44.00;;;;;;5018272;28;19917;-84
2023/07/23 08:36:39;;;;;;;;;;;32.50;44.30;;;;;;5003834;28;19917;-85
2023/07/23 08:39:04;;;;;;;;;;;32.10;45.60;;;;;;5021366;28;19917;-85
2023/07/23 08:41:48;;;;;;;;;;;33.60;45.30;;;;;;5021511;28;20352;-85
2023/07/23 08:44:26;;;;;;;;;;;34.10;41.70;;;;;;5020600;28;19923;-84
2023/07/23 08:47:00;;;;;;;;;;;34.70;40.40;;;;;;5021783;28;19928;-84
2023/07/23 08:49:25;;;;;;;;;;;35.10;41.50;;;;;;5021695;28;19914;-84
2023/07/23 08:51:51;;;;;;;;;;;34.80;40.60;;;;;;5021781;28;19932;-84
2023/07/23 08:54:19;;;;;;;;;;;35.30;41.50;;;;;;5020965;28;20471;-84
2023/07/23 08:56:44;;;;;;;;;;;35.70;39.60;;;;;;5003206;28;19925;-85
2023/07/23 08:59:10;;;;;;;;;;;37.30;38.30;;;;;;5019905;28;19917;-85
2023/07/23 09:01:36;;;;;;;;;;;38.20;38.10;;;;;;5022053;28;20388;-85
2023/07/23 09:04:03;;;;;;;;;;;37.70;36.80;;;;;;5002667;28;19944;-85
2023/07/23 09:06:30;;;;;;;;;;;37.30;36.60;;;;;;5021009;28;19964;-86
2023/07/23 09:09:09;;;;;;;;;;;38.20;38.90;;;;;;5021754;28;20376;-85
2023/07/23 09:11:36;;;;;;;;;;;38.40;36.70;;;;;;5025709;28;19913;-85
2023/07/23 09:14:09;;;;;;;;;;;37.30;35.70;;;;;;5025484;28;19966;-84
2023/07/23 09:16:36;;;;;;;;;;;38.40;35.20;;;;;;5024961;28;20379;-86
2023/07/23 09:19:01;;;;;;;;;;;38.80;35.20;;;;;;5025188;28;19923;-86
2023/07/23 09:21:27;;;;;;;;;;;37.90;35.50;;;;;;5024431;28;19921;-86
2023/07/23 09:23:53;;;;;;;;;;;38.20;37.90;;;;;;5024523;28;20352;-86
2023/07/23 09:26:20;;;;;;;;;;;38.00;37.90;;;;;;5028715;28;19928;-86
2023/07/23 09:28:45;;;;;;;;;;;38.10;36.20;;;;;;5007606;28;19917;-85
2023/07/23 09:31:11;;;;;;;;;;;38.60;34.70;;;;;;5007491;28;20583;-86
2023/07/23 09:33:36;;;;;;;;;;;39.00;34.00;;;;;;5032279;28;20437;-86
2023/07/23 09:36:03;;;;;;;;;;;38.70;33.90;;;;;;5007612;28;19921;-86
2023/07/23 09:38:29;;;;;;;;;;;39.90;34.30;;;;;;5028759;28;20051;-86
2023/07/23 09:40:55;;;;;;;;;;;40.10;33.60;;;;;;5030581;28;19963;-85
2023/07/23 09:43:21;;;;;;;;;;;39.90;33.10;;;;;;5009478;28;20015;-85
2023/07/23 09:45:47;;;;;;;;;;;39.30;31.60;;;;;;5028879;28;19917;-85
2023/07/23 09:48:16;;;;;;;;;;;39.30;33.70;;;;;;5025865;28;19925;-85
2023/07/23 09:50:41;;;;;;;;;;;38.20;34.80;;;;;;5024945;28;19964;-85
2023/07/23 09:53:10;;;;;;;;;;;38.40;34.30;;;;;;5025032;28;19951;-85
2023/07/23 09:55:39;;;;;;;;;;;39.00;34.50;;;;;;5026300;28;20400;-86
2023/07/23 09:58:05;;;;;;;;;;;39.40;34.90;;;;;;5006673;28;19935;-86
2023/07/23 10:00:32;;;;;;;;;;;39.70;32.40;;;;;;5024150;28;20296;-85
2023/07/23 10:02:59;;;;;;;;;;;38.50;33.30;;;;;;5034015;28;19983;-85
2023/07/23 10:05:25;;;;;;;;;;;37.90;34.00;;;;;;5036420;28;19918;-84
2023/07/23 10:07:51;;;;;;;;;;;38.90;32.80;;;;;;5025324;28;19913;-86
2023/07/23 10:10:17;;;;;;;;;;;39.20;31.70;;;;;;5025976;28;20454;-86
2023/07/23 10:12:42;;;;;;;;;;;39.80;31.70;;;;;;5016812;28;19913;-85
2023/07/23 10:15:08;;;;;;;;;;;39.90;31.30;;;;;;5020812;28;19929;-86
2023/07/23 10:17:44;;;;;;;;;;;39.30;33.60;;;;;;5026861;28;19919;-85
2023/07/23 10:20:11;;;;;;;;;;;39.40;32.00;;;;;;5015260;28;19913;-85
2023/07/23 10:22:39;;;;;;;;;;;38.60;31.80;;;;;;5007322;28;19963;-86
2023/07/23 10:25:25;;;;;;;;;;;40.10;31.50;;;;;;5024869;28;19917;-86
2023/07/23 10:28:01;;;;;;;;;;;40.10;30.90;;;;;;5024988;28;19963;-85
2023/07/23 10:30:27;;;;;;;;;;;38.60;33.20;;;;;;5030489;28;19919;-85
2023/07/23 10:33:11;;;;;;;;;;;39.10;32.60;;;;;;5030308;28;20004;-85
2023/07/23 10:35:51;;;;;;;;;;;38.60;32.70;;;;;;5024688;28;19971;-85
2023/07/23 10:38:20;;;;;;;;;;;38.60;33.20;;;;;;5034453;28;19913;-85
2023/07/23 10:40:46;;;;;;;;;;;39.10;33.70;;;;;;5022256;28;20641;-86
2023/07/23 10:43:12;;;;;;;;;;;38.40;32.50;;;;;;5016571;28;20295;-85
2023/07/23 10:45:38;;;;;;;;;;;36.10;34.60;;;;;;5021031;28;19918;-85
2023/07/23 10:48:04;;;;;;;;;;;35.10;35.30;;;;;;5024822;28;19991;-85
2023/07/23 10:50:33;;;;;;;;;;;34.60;38.90;;;;;;5037605;28;19920;-85
2023/07/23 10:53:00;;;;;;;;;;;34.40;41.30;;;;;;5001001;28;19913;-85
2023/07/23 10:55:45;;;;;;;;;;;33.50;41.30;;;;;;5022009;28;19932;-85
2023/07/23 10:58:11;;;;;;;;;;;33.00;41.20;;;;;;5025170;28;20657;-85
2023/07/23 11:00:46;;;;;;;;;;;32.60;39.70;;;;;;5031138;28;19924;-85
2023/07/23 11:03:16;;;;;;;;;;;32.20;41.50;;;;;;5023926;28;19917;-85
2023/07/23 11:05:42;;;;;;;;;;;32.20;42.10;;;;;;5026474;28;19917;-84
2023/07/23 11:08:12;;;;;;;;;;;31.60;42.90;;;;;;5008230;28;20348;-85
2023/07/23 11:10:47;;;;;;;;;;;31.40;43.70;;;;;;5004322;28;19917;-84
2023/07/23 11:13:13;;;;;;;;;;;31.70;44.70;;;;;;5019306;28;20561;-85
2023/07/23 11:15:39;;;;;;;;;;;31.90;46.10;;;;;;5005517;28;19932;-85
2023/07/23 11:18:05;;;;;;;;;;;31.60;44.70;;;;;;5024062;28;19913;-85
2023/07/23 11:20:31;;;;;;;;;;;31.90;46.20;;;;;;5021720;28;19943;-85
2023/07/23 11:22:59;;;;;;;;;;;31.60;44.30;;;;;;5036457;28;19909;-85
2023/07/23 11:25:25;;;;;;;;;;;31.60;44.10;;;;;;5023011;28;19964;-85
2023/07/23 11:27:50;;;;;;;;;;;31.10;46.20;;;;;;5022861;28;20043;-85
2023/07/23 11:30:16;;;;;;;;;;;31.00;48.80;;;;;;4999412;28;19914;-86
2023/07/23 11:32:44;;;;;;;;;;;30.80;48.80;;;;;;5013915;28;19917;-84
2023/07/23 11:35:10;;;;;;;;;;;31.00;48.20;;;;;;5019826;28;19925;-85
2023/07/23 11:37:35;;;;;;;;;;;31.20;49.80;;;;;;5022119;28;19927;-85
2023/07/23 11:40:03;;;;;;;;;;;30.80;49.50;;;;;;5004698;28;19920;-84
2023/07/23 11:42:31;;;;;;;;;;;30.90;45.50;;;;;;5022824;28;19960;-85
2023/07/23 11:45:04;;;;;;;;;;;30.80;47.60;;;;;;5024157;28;19917;-85
2023/07/23 11:47:30;;;;;;;;;;;30.60;46.10;;;;;;5025477;28;19921;-85
2023/07/23 11:49:55;;;;;;;;;;;30.70;46.30;;;;;;5035030;28;20779;-84
2023/07/23 11:52:22;;;;;;;;;;;30.90;47.20;;;;;;5028032;28;20507;-85
2023/07/23 11:54:47;;;;;;;;;;;30.60;48.20;;;;;;5029018;28;19925;-84
2023/07/23 11:57:13;;;;;;;;;;;30.50;48.60;;;;;;5024478;28;19928;-84
2023/07/23 11:59:39;;;;;;;;;;;30.40;50.90;;;;;;5022053;28;19917;-84
2023/07/23 12:02:05;;;;;;;;;;;30.40;48.20;;;;;;5027127;28;19913;-84
2023/07/23 12:04:36;;;;;;;;;;;30.40;47.70;;;;;;5019470;28;19924;-84
2023/07/23 12:07:02;;;;;;;;;;;30.40;47.90;;;;;;5009360;28;19924;-84
2023/07/23 12:09:28;;;;;;;;;;;29.60;45.90;;;;;;5021599;28;19917;-83
2023/07/23 12:11:53;;;;;;;;;;;29.40;47.10;;;;;;5027870;28;19912;-84
2023/07/23 12:14:19;;;;;;;;;;;29.30;46.40;;;;;;5025940;28;19913;-84
2023/07/23 12:16:52;;;;;;;;;;;29.50;48.30;;;;;;5022677;28;19948;-84
2023/07/23 12:19:19;;;;;;;;;;;29.80;47.50;;;;;;5024913;28;20360;-83
2023/07/23 12:21:46;;;;;;;;;;;29.70;48.00;;;;;;5027322;28;19913;-85
2023/07/23 12:24:14;;;;;;;;;;;30.00;51.50;;;;;;5004283;28;19913;-84
2023/07/23 12:26:40;;;;;;;;;;;30.00;51.60;;;;;;5025320;28;19913;-83
2023/07/23 12:29:06;;;;;;;;;;;30.00;53.00;;;;;;5022305;28;19921;-84
2023/07/23 12:31:34;;;;;;;;;;;29.90;48.40;;;;;;5024263;28;19987;-84
2023/07/23 12:34:00;;;;;;;;;;;29.80;50.40;;;;;;5022768;28;19959;-85
2023/07/23 12:36:26;;;;;;;;;;;29.70;51.40;;;;;;5021690;28;20359;-85
2023/07/23 12:38:51;;;;;;;;;;;29.70;50.20;;;;;;5004363;28;19935;-86
2023/07/23 12:41:17;;;;;;;;;;;29.70;49.50;;;;;;5025669;28;19924;-83
2023/07/23 12:43:42;;;;;;;;;;;29.80;51.10;;;;;;5020923;28;20680;-85
2023/07/23 12:46:08;;;;;;;;;;;29.90;51.40;;;;;;5017551;28;19917;-85
2023/07/23 12:48:33;;;;;;;;;;;29.70;50.30;;;;;;5004633;28;19928;-85
2023/07/23 12:50:59;;;;;;;;;;;29.60;51.20;;;;;;5034761;28;19926;-85
2023/07/23 12:53:24;;;;;;;;;;;29.70;51.20;;;;;;5010324;28;20001;-85
2023/07/23 12:55:50;;;;;;;;;;;29.70;51.50;;;;;;4997813;28;19921;-85
2023/07/23 12:58:15;;;;;;;;;;;29.50;49.30;;;;;;5011780;28;19923;-85
2023/07/23 13:00:41;;;;;;;;;;;29.60;50.10;;;;;;5029802;28;20032;-84
2023/07/23 13:03:06;;;;;;;;;;;29.70;51.90;;;;;;5004237;28;20416;-85
2023/07/23 13:05:33;;;;;;;;;;;29.60;51.20;;;;;;5007816;28;19920;-85
2023/07/23 13:08:00;;;;;;;;;;;29.60;54.20;;;;;;5017268;28;19917;-85
2023/07/23 13:10:26;;;;;;;;;;;29.70;53.00;;;;;;5001527;28;19920;-84
2023/07/23 13:12:51;;;;;;;;;;;29.60;52.70;;;;;;5004332;28;19928;-85
2023/07/23 13:15:17;;;;;;;;;;;29.60;52.30;;;;;;5022247;28;19921;-84
2023/07/23 13:17:43;;;;;;;;;;;29.50;50.90;;;;;;5030280;28;19972;-85
2023/07/23 13:20:09;;;;;;;;;;;29.30;49.50;;;;;;5030441;28;19913;-85
2023/07/23 13:22:34;;;;;;;;;;;29.30;51.10;;;;;;5025120;28;20019;-84
2023/07/23 13:25:00;;;;;;;;;;;29.40;50.90;;;;;;5009415;28;20445;-84
2023/07/23 13:27:25;;;;;;;;;;;29.20;51.40;;;;;;5031412;28;19917;-85
2023/07/23 13:29:51;;;;;;;;;;;29.30;51.70;;;;;;5023661;28;19913;-84
2023/07/23 13:32:16;;;;;;;;;;;29.30;48.80;;;;;;5017433;28;19917;-85
2023/07/23 13:34:42;;;;;;;;;;;29.20;50.80;;;;;;5021774;28;19918;-84
2023/07/23 13:37:07;;;;;;;;;;;29.20;52.20;;;;;;5026733;28;19921;-85
2023/07/23 13:39:33;;;;;;;;;;;29.20;50.30;;;;;;5027308;28;20467;-86
2023/07/23 13:41:59;;;;;;;;;;;29.20;50.50;;;;;;5024197;28;19967;-85
2023/07/23 13:44:24;;;;;;;;;;;29.10;49.90;;;;;;5018256;28;19984;-85
2023/07/23 13:46:50;;;;;;;;;;;29.00;49.10;;;;;;5006660;28;20050;-86
2023/07/23 13:49:15;;;;;;;;;;;29.20;52.60;;;;;;4996421;28;19925;-86
2023/07/23 13:51:41;;;;;;;;;;;29.30;52.00;;;;;;5019104;28;19925;-86
2023/07/23 13:54:06;;;;;;;;;;;29.10;50.20;;;;;;5020577;28;19921;-85
2023/07/23 13:56:32;;;;;;;;;;;29.20;51.90;;;;;;5017722;28;19930;-83
2023/07/23 13:58:57;;;;;;;;;;;29.40;51.60;;;;;;5021140;28;19913;-86
2023/07/23 14:01:23;;;;;;;;;;;29.30;50.10;;;;;;5022097;28;19921;-86
2023/07/23 14:03:49;;;;;;;;;;;29.20;51.90;;;;;;5022389;28;19917;-87
2023/07/23 14:06:16;;;;;;;;;;;29.10;51.10;;;;;;5021770;28;19940;-84
2023/07/23 14:08:42;;;;;;;;;;;29.10;51.80;;;;;;5024891;28;19983;-84
2023/07/23 14:11:07;;;;;;;;;;;29.20;50.90;;;;;;5022376;28;19953;-84